TimeEST,TemperatureF,Dew PointF,Humidity,Sea Level PressureIn,VisibilityMPH,Wind Direction,Wind SpeedMPH,Gust SpeedMPH,PrecipitationIn,Events,Conditions,WindDirDegrees,DateUTC
12:51 AM,19.0,14.0,81,29.77,10.0,North,3.5,-,N/A,,Overcast,360,2013-01-22 05:51:00
1:51 AM,19.0,12.9,77,29.75,10.0,NNW,5.8,-,N/A,,Overcast,330,2013-01-22 06:51:00
2:51 AM,19.0,12.9,77,29.75,10.0,North,5.8,-,N/A,,Overcast,360,2013-01-22 07:51:00
3:51 AM,19.0,12.0,74,29.74,10.0,NNW,6.9,-,N/A,,Overcast,340,2013-01-22 08:51:00
5:51 AM,15.1,8.1,74,29.74,10.0,NNW,10.4,-,N/A,,Clear,330,2013-01-22 10:51:00
6:51 AM,12.9,5.0,71,29.76,10.0,North,5.8,-,N/A,,Clear,350,2013-01-22 11:51:00
7:37 AM,14.0,6.8,73,29.77,10.0,NNW,8.1,-,N/A,,Overcast,330,2013-01-22 12:37:00
7:51 AM,14.0,6.1,71,29.78,10.0,NNW,9.2,-,N/A,,Overcast,330,2013-01-22 12:51:00
8:37 AM,15.8,6.8,68,29.78,10.0,NNW,8.1,-,N/A,,Mostly Cloudy,330,2013-01-22 13:37:00
8:51 AM,16.0,7.0,68,29.80,10.0,NW,5.8,-,N/A,,Mostly Cloudy,320,2013-01-22 13:51:00
9:51 AM,18.0,9.0,68,29.80,10.0,NNW,4.6,-,N/A,,Clear,330,2013-01-22 14:51:00
10:51 AM,21.9,3.9,46,29.80,10.0,WNW,13.8,20.7,N/A,,Clear,300,2013-01-22 15:51:00
11:51 AM,23.0,1.0,39,29.79,10.0,West,10.4,18.4,N/A,,Scattered Clouds,280,2013-01-22 16:51:00
12:51 PM,23.0,-2.0,34,29.78,10.0,West,8.1,25.3,N/A,,Scattered Clouds,280,2013-01-22 17:51:00
1:51 PM,23.0,-4.0,31,29.80,10.0,WNW,11.5,24.2,N/A,,Mostly Cloudy,300,2013-01-22 18:51:00
2:51 PM,21.0,-2.9,35,29.82,10.0,NW,12.7,26.5,N/A,,Overcast,310,2013-01-22 19:51:00
3:51 PM,19.9,-7.1,30,29.86,10.0,NW,15.0,24.2,N/A,,Partly Cloudy,310,2013-01-22 20:51:00
4:51 PM,18.0,-0.9,44,29.88,10.0,NW,16.1,21.9,N/A,,Mostly Cloudy,310,2013-01-22 21:51:00
5:51 PM,16.0,3.0,57,29.92,10.0,WNW,9.2,-,N/A,,Partly Cloudy,290,2013-01-22 22:51:00
6:51 PM,16.0,3.9,59,29.96,10.0,Variable,4.6,-,N/A,,Mostly Cloudy,0,2013-01-22 23:51:00
7:51 PM,12.9,-0.0,56,29.98,10.0,WNW,11.5,-,0.00,,Scattered Clouds,300,2013-01-23 00:51:00
8:51 PM,12.0,-0.9,56,29.99,10.0,Variable,4.6,-,N/A,,Clear,0,2013-01-23 01:51:00
9:51 PM,10.0,-0.9,61,30.01,10.0,Calm,Calm,-,N/A,,Clear,0,2013-01-23 02:51:00
10:51 PM,8.1,-2.0,64,30.02,10.0,Calm,Calm,-,N/A,,Clear,0,2013-01-23 03:51:00
11:51 PM,7.0,-4.0,61,30.02,10.0,Calm,Calm,-,N/A,,Clear,0,2013-01-23 04:51:00